createdAt,value
2022-09-28T00:01:33.923Z,1.20
2022-09-28T00:04:01.386Z,1.60
2022-09-28T00:06:30.125Z,1.53
2022-09-28T00:08:57.778Z,1.43
2022-09-28T00:11:28.108Z,1.40
2022-09-28T00:13:56.635Z,1.40
2022-09-28T00:16:25.941Z,1.50
2022-09-28T00:18:53.072Z,1.30
2022-09-28T00:21:24.339Z,1.50
2022-09-28T00:24:14.781Z,1.50
2022-09-28T00:26:44.637Z,1.40
2022-09-28T00:29:16.898Z,1.60
2022-09-28T00:31:44.085Z,1.27
2022-09-28T00:34:11.171Z,1.40
2022-09-28T00:36:38.211Z,1.50
2022-09-28T00:39:09.377Z,1.43
2022-09-28T00:41:36.542Z,1.47
2022-09-28T00:44:22.118Z,1.40
2022-09-28T00:46:58.317Z,1.50
2022-09-28T00:49:32.471Z,1.50
2022-09-28T00:52:00.043Z,1.40
2022-09-28T00:54:27.100Z,1.60
2022-09-28T00:56:54.120Z,1.50
2022-09-28T00:59:24.349Z,1.60
2022-09-28T01:01:51.480Z,1.50
2022-09-28T01:04:18.647Z,1.40
2022-09-28T01:06:46.085Z,1.70
2022-09-28T01:09:14.623Z,1.53
2022-09-28T01:11:42.447Z,1.67
2022-09-28T01:14:10.868Z,1.30
2022-09-28T01:16:40.904Z,1.40
2022-09-28T01:19:25.518Z,1.40
2022-09-28T01:22:04.409Z,1.43
2022-09-28T01:24:37.145Z,1.90
2022-09-28T01:27:21.214Z,1.60
2022-09-28T01:29:53.394Z,1.20
2022-09-28T01:32:31.109Z,1.40
2022-09-28T01:35:00.888Z,1.30
2022-09-28T01:37:44.418Z,1.37
2022-09-28T01:40:12.726Z,1.60
2022-09-28T01:42:40.543Z,1.80
2022-09-28T01:45:11.238Z,1.70
2022-09-28T01:47:40.819Z,1.60
2022-09-28T01:50:11.005Z,1.53
2022-09-28T01:52:45.117Z,1.73
2022-09-28T01:55:15.420Z,1.70
2022-09-28T01:57:48.278Z,1.87
2022-09-28T02:00:16.155Z,1.80
2022-09-28T02:02:45.953Z,2.28
2022-09-28T02:05:16.403Z,2.03
2022-09-28T02:07:56.170Z,2.23
2022-09-28T02:10:24.810Z,1.73
2022-09-28T02:13:13.671Z,2.00
2022-09-28T02:15:49.646Z,1.80
2022-09-28T02:18:16.498Z,1.70
2022-09-28T02:20:51.871Z,1.93
2022-09-28T02:23:22.146Z,1.67
2022-09-28T02:25:53.584Z,1.70
2022-09-28T02:28:20.148Z,2.20
2022-09-28T02:30:46.749Z,1.57
2022-09-28T02:33:28.113Z,1.90
2022-09-28T02:35:55.372Z,1.80
2022-09-28T02:38:21.920Z,1.97
2022-09-28T02:41:07.963Z,1.83
2022-09-28T02:43:53.065Z,1.97
2022-09-28T02:46:46.994Z,1.80
2022-09-28T02:49:34.755Z,2.03
2022-09-28T02:52:18.592Z,2.27
2022-09-28T02:55:17.894Z,1.77
2022-09-28T02:58:03.484Z,2.13
2022-09-28T03:00:32.801Z,2.03
2022-09-28T03:03:20.892Z,2.43
2022-09-28T03:06:04.237Z,1.67
2022-09-28T03:08:37.303Z,1.97
2022-09-28T03:11:25.778Z,1.80
2022-09-28T03:13:53.282Z,1.73
2022-09-28T03:16:20.349Z,1.90
2022-09-28T03:18:47.686Z,2.30
2022-09-28T03:21:15.540Z,1.87
2022-09-28T03:23:42.822Z,1.73
2022-09-28T03:26:12.011Z,2.00
2022-09-28T03:28:38.556Z,2.00
2022-09-28T03:31:05.197Z,2.07
2022-09-28T03:33:32.049Z,1.60
2022-09-28T03:35:58.818Z,2.13
2022-09-28T03:38:25.416Z,1.93
2022-09-28T03:40:54.559Z,1.60
2022-09-28T03:43:21.777Z,2.30
2022-09-28T03:45:53.231Z,1.77
2022-09-28T03:48:31.364Z,1.30
2022-09-28T03:51:01.515Z,1.60
2022-09-28T03:53:29.658Z,1.70
2022-09-28T03:56:01.824Z,1.47
2022-09-28T03:58:28.460Z,1.30
2022-09-28T04:00:55.073Z,1.90
2022-09-28T04:03:21.736Z,1.60
2022-09-28T04:05:52.418Z,1.67
2022-09-28T04:08:19.851Z,1.47
2022-09-28T04:10:47.135Z,1.30
2022-09-28T04:13:13.897Z,1.40
2022-09-28T04:15:40.485Z,1.60
2022-09-28T04:18:11.633Z,1.40
2022-09-28T04:20:40.948Z,1.23
2022-09-28T04:23:07.565Z,1.50
2022-09-28T04:25:34.179Z,1.53
2022-09-28T04:28:19.555Z,1.63
2022-09-28T04:30:47.628Z,1.57
2022-09-28T04:33:14.300Z,1.95
2022-09-28T04:35:41.128Z,1.97
2022-09-28T04:38:07.675Z,1.43
2022-09-28T04:40:34.413Z,1.63
2022-09-28T04:43:01.019Z,1.63
2022-09-28T04:45:28.484Z,1.63
2022-09-28T04:47:55.095Z,1.60
2022-09-28T04:50:21.713Z,1.43
2022-09-28T04:52:48.274Z,1.43
2022-09-28T04:55:15.079Z,1.37
2022-09-28T04:57:41.610Z,1.30
2022-09-28T05:00:09.327Z,2.10
2022-09-28T05:02:36.042Z,1.93
2022-09-28T05:05:02.695Z,1.77
2022-09-28T05:07:29.335Z,1.60
2022-09-28T05:09:55.915Z,3.50
2022-09-28T05:12:22.587Z,2.53
2022-09-28T05:14:49.159Z,1.93
2022-09-28T05:17:15.829Z,1.90
2022-09-28T05:19:43.004Z,2.13
2022-09-28T05:22:14.644Z,1.87
2022-09-28T05:24:52.826Z,1.70
2022-09-28T05:27:19.389Z,1.70
2022-09-28T05:29:45.975Z,1.77
2022-09-28T05:32:12.557Z,1.80
2022-09-28T05:34:39.150Z,2.00
2022-09-28T05:37:09.044Z,1.97
2022-09-28T05:39:35.732Z,2.23
2022-09-28T05:42:02.264Z,1.80
2022-09-28T05:44:28.846Z,1.90
2022-09-28T05:46:55.432Z,2.30
2022-09-28T05:49:21.979Z,1.70
2022-09-28T05:51:48.520Z,1.60
2022-09-28T05:54:15.152Z,1.77
2022-09-28T05:56:41.755Z,1.70
2022-09-28T05:59:08.951Z,2.23
2022-09-28T06:01:35.539Z,2.10
2022-09-28T06:04:02.135Z,3.90
2022-09-28T06:06:28.741Z,16.93
2022-09-28T06:08:55.867Z,9.63
2022-09-28T06:11:23.222Z,4.50
2022-09-28T06:13:54.122Z,2.80
2022-09-28T06:16:20.877Z,2.33
2022-09-28T06:18:47.839Z,2.17
2022-09-28T06:21:14.366Z,2.50
2022-09-28T06:23:43.584Z,2.70
2022-09-28T06:26:12.452Z,2.37
2022-09-28T06:28:39.131Z,2.37
2022-09-28T06:31:05.782Z,2.53
2022-09-28T06:33:32.447Z,2.50
2022-09-28T06:36:00.037Z,2.63
2022-09-28T06:38:26.669Z,2.40
2022-09-28T06:40:53.241Z,2.50
2022-09-28T06:43:19.806Z,2.67
2022-09-28T06:45:51.954Z,3.20
2022-09-28T06:48:19.313Z,2.80
2022-09-28T06:50:47.415Z,2.67
2022-09-28T06:53:14.902Z,2.53
2022-09-28T06:55:43.608Z,2.67
2022-09-28T06:58:12.878Z,3.20
2022-09-28T07:00:40.709Z,3.53
2022-09-28T07:03:19.124Z,3.57
2022-09-28T07:05:49.329Z,3.87
2022-09-28T07:08:17.295Z,3.17
2022-09-28T07:10:46.312Z,3.23
2022-09-28T07:13:40.643Z,3.77
2022-09-28T07:16:01.805Z,3.30
2022-09-28T07:18:29.908Z,2.93
2022-09-28T07:20:57.344Z,3.40
2022-09-28T07:23:26.190Z,3.70
2022-09-28T07:25:53.239Z,3.40
2022-09-28T07:28:21.050Z,2.67
2022-09-28T07:30:48.172Z,4.07
2022-09-28T07:33:15.874Z,3.83
2022-09-28T07:35:50.643Z,3.95
2022-09-28T07:38:17.185Z,2.97
2022-09-28T07:41:02.310Z,3.57
2022-09-28T07:43:28.971Z,3.20
2022-09-28T07:45:55.705Z,3.30
2022-09-28T07:48:22.956Z,3.37
2022-09-28T07:50:54.469Z,3.23
2022-09-28T07:53:22.864Z,2.80
2022-09-28T07:56:02.073Z,3.17
2022-09-28T07:58:29.268Z,3.27
2022-09-28T08:00:55.838Z,3.00
2022-09-28T08:03:22.519Z,2.73
2022-09-28T08:05:49.770Z,3.97
2022-09-28T08:08:16.537Z,2.87
2022-09-28T08:10:46.846Z,2.83
2022-09-28T08:13:15.014Z,2.67
2022-09-28T08:15:42.416Z,2.70
2022-09-28T08:18:09.287Z,2.33
2022-09-28T08:20:54.474Z,2.63
2022-09-28T08:23:21.065Z,2.60
2022-09-28T08:25:52.472Z,3.10
2022-09-28T08:28:19.416Z,2.73
2022-09-28T08:30:47.047Z,2.23
2022-09-28T08:33:14.983Z,2.70
2022-09-28T08:35:42.041Z,2.60
2022-09-28T08:38:09.465Z,2.33
2022-09-28T08:41:00.079Z,2.60
2022-09-28T08:43:48.098Z,2.60
2022-09-28T08:46:20.842Z,2.70
2022-09-28T08:49:30.678Z,2.63
2022-09-28T08:52:07.939Z,2.57
2022-09-28T08:54:51.689Z,1.73
2022-09-28T08:57:45.104Z,2.30
2022-09-28T09:00:21.370Z,2.20
2022-09-28T09:02:48.905Z,2.40
2022-09-28T09:05:19.862Z,2.70
2022-09-28T09:07:52.408Z,2.43
2022-09-28T09:10:28.583Z,2.60
2022-09-28T09:13:00.859Z,2.57
2022-09-28T09:15:48.083Z,2.57
2022-09-28T09:18:24.087Z,2.07
2022-09-28T09:21:01.297Z,2.70
2022-09-28T09:23:39.292Z,2.10
2022-09-28T09:26:17.729Z,2.50
2022-09-28T09:29:27.929Z,3.07
2022-09-28T09:32:48.602Z,2.30
2022-09-28T09:35:28.339Z,2.00
2022-09-28T09:38:19.074Z,2.30
2022-09-28T09:41:05.215Z,2.40
2022-09-28T09:43:42.010Z,2.53
2022-09-28T09:46:09.000Z,2.73
2022-09-28T09:48:42.385Z,2.80
2022-09-28T09:51:32.944Z,2.60
2022-09-28T09:54:02.466Z,2.60
2022-09-28T09:56:34.469Z,2.90
2022-09-28T09:59:23.976Z,2.90
2022-09-28T10:01:51.905Z,3.10
2022-09-28T10:04:22.947Z,3.30
2022-09-28T10:06:52.026Z,2.90
2022-09-28T10:09:30.832Z,3.00
2022-09-28T10:11:58.372Z,2.83
2022-09-28T10:14:26.018Z,2.60
2022-09-28T10:16:54.178Z,2.90
2022-09-28T10:19:22.647Z,2.90
2022-09-28T10:21:53.344Z,3.20
2022-09-28T10:24:32.316Z,2.53
2022-09-28T10:27:03.670Z,2.37
2022-09-28T10:29:35.271Z,2.50
2022-09-28T10:32:03.189Z,3.20
2022-09-28T10:34:30.773Z,2.87
2022-09-28T10:37:00.545Z,3.13
2022-09-28T10:39:33.693Z,2.20
2022-09-28T10:42:04.909Z,1.87
2022-09-28T10:44:38.774Z,2.38
2022-09-28T10:47:09.944Z,2.47
2022-09-28T10:49:46.594Z,2.60
2022-09-28T10:52:32.869Z,2.13
2022-09-28T10:54:59.964Z,2.30
2022-09-28T10:57:34.503Z,2.50
2022-09-28T11:00:02.518Z,2.33
2022-09-28T11:02:36.163Z,2.10
2022-09-28T11:05:05.316Z,2.20
2022-09-28T11:07:33.999Z,2.10
2022-09-28T11:10:01.960Z,2.20
2022-09-28T11:12:33.887Z,1.93
2022-09-28T11:15:02.486Z,2.30
2022-09-28T11:17:33.406Z,2.33
2022-09-28T11:20:01.955Z,2.73
2022-09-28T11:22:30.311Z,2.27
2022-09-28T11:25:14.799Z,2.00
2022-09-28T11:27:41.813Z,2.33
2022-09-28T11:30:20.883Z,2.63
2022-09-28T11:33:10.937Z,2.77
2022-09-28T11:35:37.957Z,2.50
2022-09-28T11:38:12.026Z,2.20
2022-09-28T11:40:58.311Z,2.63
2022-09-28T11:43:25.288Z,1.90
2022-09-28T11:46:00.460Z,2.10
2022-09-28T11:48:53.507Z,1.80
2022-09-28T11:51:41.687Z,2.13
2022-09-28T11:54:23.487Z,2.10
2022-09-28T11:56:51.818Z,1.73
2022-09-28T11:59:21.795Z,2.57
2022-09-28T12:01:52.163Z,2.20
2022-09-28T12:04:24.297Z,2.20
2022-09-28T12:06:53.731Z,2.10
2022-09-28T12:09:29.520Z,2.13
2022-09-28T12:11:59.347Z,2.10
2022-09-28T12:14:31.634Z,1.97
2022-09-28T12:17:07.335Z,2.10
2022-09-28T12:19:55.378Z,2.03
2022-09-28T12:22:45.667Z,2.10
2022-09-28T12:25:17.678Z,1.87
2022-09-28T12:27:51.854Z,1.70
2022-09-28T12:30:20.218Z,2.10
2022-09-28T12:32:50.138Z,1.80
2022-09-28T12:35:20.158Z,1.60
2022-09-28T12:37:54.506Z,1.70
2022-09-28T12:40:36.588Z,2.07
2022-09-28T12:43:09.590Z,1.70
2022-09-28T12:46:11.707Z,1.77
2022-09-28T12:48:37.335Z,1.40
2022-09-28T12:51:04.290Z,1.67
2022-09-28T12:53:32.286Z,1.80
2022-09-28T12:56:03.963Z,1.50
2022-09-28T12:58:43.271Z,1.90
2022-09-28T13:01:32.933Z,2.03
2022-09-28T13:04:10.231Z,2.10
2022-09-28T13:06:42.735Z,1.50
2022-09-28T13:09:19.804Z,1.80
2022-09-28T13:11:55.295Z,2.00
2022-09-28T13:14:36.747Z,1.50
2022-09-28T13:17:19.101Z,1.60
2022-09-28T13:19:58.721Z,2.13
2022-09-28T13:22:34.898Z,1.43
2022-09-28T13:25:03.852Z,1.43
2022-09-28T13:27:37.691Z,1.43
2022-09-28T13:30:09.173Z,1.60
2022-09-28T13:32:38.844Z,1.60
2022-09-28T13:35:06.338Z,2.00
2022-09-28T13:37:34.351Z,1.80
2022-09-28T13:40:06.078Z,1.50
2022-09-28T13:42:39.167Z,1.77
2022-09-28T13:45:21.226Z,1.67
2022-09-28T13:47:57.561Z,1.80
2022-09-28T13:50:43.439Z,1.60
2022-09-28T13:53:28.060Z,1.63
2022-09-28T13:56:33.749Z,1.70
2022-09-28T13:59:00.717Z,1.87
2022-09-28T14:01:36.109Z,1.77
2022-09-28T14:04:14.203Z,1.60
2022-09-28T14:06:55.604Z,1.77
2022-09-28T14:09:25.067Z,1.90
2022-09-28T14:11:57.991Z,1.50
2022-09-28T14:14:26.864Z,1.93
2022-09-28T14:17:01.039Z,1.70
2022-09-28T14:19:33.875Z,1.87
2022-09-28T14:22:06.844Z,2.27
2022-09-28T14:24:36.990Z,1.40
2022-09-28T14:27:03.941Z,1.70
2022-09-28T14:29:32.732Z,1.63
2022-09-28T14:32:05.274Z,1.73
2022-09-28T14:34:32.964Z,1.83
2022-09-28T14:37:19.535Z,2.00
2022-09-28T14:40:05.967Z,1.70
2022-09-28T14:42:33.182Z,2.03
2022-09-28T14:45:06.746Z,2.67
2022-09-28T14:47:37.275Z,1.73
2022-09-28T14:50:22.990Z,1.60
2022-09-28T14:52:52.070Z,1.50
2022-09-28T14:55:23.526Z,1.80
2022-09-28T14:57:56.461Z,1.87
2022-09-28T15:00:25.909Z,1.77
2022-09-28T15:02:54.962Z,1.60
2022-09-28T15:05:30.429Z,1.60
2022-09-28T15:07:57.884Z,1.53
2022-09-28T15:10:28.147Z,1.43
2022-09-28T15:12:57.033Z,2.00
2022-09-28T15:15:29.110Z,1.50
2022-09-28T15:18:03.083Z,1.60
2022-09-28T15:20:32.855Z,1.80
2022-09-28T15:23:00.526Z,1.40
2022-09-28T15:25:31.870Z,1.60
2022-09-28T15:28:04.431Z,1.70
2022-09-28T15:30:32.931Z,1.57
2022-09-28T15:33:19.710Z,1.60
2022-09-28T15:35:54.419Z,1.43
2022-09-28T15:38:21.533Z,1.53
2022-09-28T15:40:48.748Z,1.57
2022-09-28T15:43:23.494Z,2.00
2022-09-28T15:46:02.596Z,1.93
2022-09-28T15:48:33.005Z,1.63
2022-09-28T15:51:11.511Z,1.40
2022-09-28T15:53:50.374Z,2.00
2022-09-28T15:56:17.379Z,1.60
2022-09-28T15:58:44.493Z,1.40
2022-09-28T16:01:19.377Z,1.50
2022-09-28T16:03:46.390Z,1.60
2022-09-28T16:06:14.226Z,1.90
2022-09-28T16:08:42.814Z,1.60
2022-09-28T16:11:16.133Z,1.47
2022-09-28T16:13:46.197Z,1.50
2022-09-28T16:16:16.131Z,2.17
2022-09-28T16:18:48.021Z,2.00
2022-09-28T16:21:26.050Z,1.83
2022-09-28T16:23:55.666Z,1.90
2022-09-28T16:26:32.051Z,1.70
2022-09-28T16:28:59.731Z,2.00
2022-09-28T16:31:33.480Z,1.70
2022-09-28T16:34:11.382Z,1.70
2022-09-28T16:36:45.988Z,1.60
2022-09-28T16:39:16.882Z,1.80
2022-09-28T16:41:46.102Z,1.80
2022-09-28T16:44:36.338Z,1.87
2022-09-28T16:47:03.339Z,1.70
2022-09-28T16:49:31.544Z,1.63
2022-09-28T16:51:58.085Z,1.80
2022-09-28T16:54:43.571Z,2.00
2022-09-28T16:57:13.215Z,1.70
2022-09-28T16:59:39.893Z,1.70
2022-09-28T17:02:42.065Z,1.70
2022-09-28T17:05:06.973Z,2.20
2022-09-28T17:07:34.065Z,1.70
2022-09-28T17:10:00.606Z,1.80
2022-09-28T17:12:28.813Z,2.00
2022-09-28T17:14:55.362Z,1.90
2022-09-28T17:17:22.648Z,1.97
2022-09-28T17:19:49.200Z,1.80
2022-09-28T17:22:16.695Z,1.90
2022-09-28T17:24:45.475Z,1.83
2022-09-28T17:27:18.503Z,2.20
2022-09-28T17:29:45.196Z,2.40
2022-09-28T17:32:18.458Z,2.50
2022-09-28T17:34:51.576Z,2.20
2022-09-28T17:37:22.683Z,2.63
2022-09-28T17:39:49.240Z,2.70
2022-09-28T17:42:17.175Z,2.13
2022-09-28T17:44:43.824Z,2.30
2022-09-28T17:47:11.419Z,3.33
2022-09-28T17:49:38.766Z,2.70
2022-09-28T17:52:05.526Z,3.33
2022-09-28T17:54:33.704Z,2.93
2022-09-28T17:57:00.370Z,3.23
2022-09-28T17:59:28.180Z,3.37
2022-09-28T18:01:55.080Z,3.33
2022-09-28T18:04:50.101Z,3.73
2022-09-28T18:07:09.297Z,3.17
2022-09-28T18:09:35.901Z,4.10
2022-09-28T18:12:04.898Z,3.73
2022-09-28T18:14:31.563Z,3.77
2022-09-28T18:16:58.168Z,4.13
2022-09-28T18:19:28.632Z,4.40
2022-09-28T18:21:58.596Z,4.80
2022-09-28T18:24:25.157Z,5.57
2022-09-28T18:26:51.708Z,6.27
2022-09-28T18:29:18.272Z,6.10
2022-09-28T18:31:44.828Z,6.57
2022-09-28T18:34:12.362Z,6.90
2022-09-28T18:36:38.987Z,6.60
2022-09-28T18:39:05.559Z,6.47
2022-09-28T18:41:32.144Z,7.20
2022-09-28T18:44:01.587Z,6.77
2022-09-28T18:46:30.021Z,6.67
2022-09-28T18:48:56.779Z,6.63
2022-09-28T18:51:23.711Z,7.20
2022-09-28T18:53:50.300Z,5.97
2022-09-28T18:56:18.239Z,6.23
2022-09-28T18:58:46.589Z,5.90
2022-09-28T19:01:30.040Z,5.40
2022-09-28T19:04:02.205Z,6.00
2022-09-28T19:06:29.682Z,5.63
2022-09-28T19:08:57.659Z,6.60
2022-09-28T19:11:24.995Z,6.00
2022-09-28T19:13:53.633Z,6.90
2022-09-28T19:16:24.042Z,6.00
2022-09-28T19:18:52.386Z,6.47
2022-09-28T19:21:19.627Z,5.83
2022-09-28T19:23:49.670Z,7.13
2022-09-28T19:26:23.155Z,5.67
2022-09-28T19:28:50.192Z,5.47
2022-09-28T19:31:17.366Z,6.40
2022-09-28T19:33:46.279Z,5.20
2022-09-28T19:36:17.151Z,5.70
2022-09-28T19:38:44.081Z,5.07
2022-09-28T19:41:37.833Z,5.60
2022-09-28T19:44:29.676Z,4.67
2022-09-28T19:47:06.621Z,4.97
2022-09-28T19:49:37.092Z,5.03
2022-09-28T19:52:13.822Z,5.43
2022-09-28T19:54:56.350Z,5.00
2022-09-28T19:57:25.808Z,5.37
2022-09-28T19:59:54.360Z,5.37
2022-09-28T20:02:23.506Z,5.27
2022-09-28T20:04:50.308Z,5.30
2022-09-28T20:07:16.995Z,4.53
2022-09-28T20:09:43.639Z,5.30
2022-09-28T20:12:10.289Z,6.00
2022-09-28T20:14:39.610Z,5.07
2022-09-28T20:17:07.315Z,4.60
2022-09-28T20:19:34.857Z,5.10
2022-09-28T20:22:02.514Z,5.23
2022-09-28T20:24:29.223Z,5.47
2022-09-28T20:26:55.856Z,5.07
2022-09-28T20:29:24.199Z,5.07
2022-09-28T20:31:51.714Z,5.20
2022-09-28T20:34:18.331Z,5.23
2022-09-28T20:36:44.941Z,5.80
2022-09-28T20:39:11.934Z,5.53
2022-09-28T20:41:38.619Z,5.43
2022-09-28T20:44:06.677Z,5.53
2022-09-28T20:46:35.087Z,5.10
2022-09-28T20:49:02.131Z,5.53
2022-09-28T20:51:28.838Z,4.93
2022-09-28T20:53:57.503Z,5.27
2022-09-28T20:56:34.394Z,5.87
2022-09-28T20:59:00.964Z,5.20
2022-09-28T21:01:29.960Z,5.17
2022-09-28T21:03:59.460Z,4.90
2022-09-28T21:06:31.571Z,4.73
2022-09-28T21:08:58.347Z,5.37
2022-09-28T21:11:26.514Z,6.00
2022-09-28T21:13:54.940Z,6.00
2022-09-28T21:16:21.741Z,5.40
2022-09-28T21:18:48.707Z,5.53
2022-09-28T21:21:17.520Z,5.40
2022-09-28T21:23:44.895Z,5.50
2022-09-28T21:26:24.375Z,5.20
2022-09-28T21:29:04.764Z,5.30
2022-09-28T21:31:37.295Z,5.20
2022-09-28T21:34:04.737Z,4.50
2022-09-28T21:36:31.855Z,5.30
2022-09-28T21:38:58.456Z,4.90
2022-09-28T21:41:25.641Z,5.10
2022-09-28T21:43:52.667Z,5.20
2022-09-28T21:46:19.443Z,5.03
2022-09-28T21:48:46.145Z,5.40
2022-09-28T21:51:16.022Z,5.63
2022-09-28T21:53:42.762Z,4.83
2022-09-28T21:56:12.204Z,4.90
2022-09-28T21:58:40.003Z,5.17
2022-09-28T22:01:14.664Z,4.80
2022-09-28T22:03:43.878Z,5.23
2022-09-28T22:06:11.087Z,4.50
2022-09-28T22:08:38.065Z,4.67
2022-09-28T22:11:08.502Z,4.43
2022-09-28T22:13:53.191Z,5.10
2022-09-28T22:16:21.958Z,4.60
2022-09-28T22:18:48.702Z,4.17
2022-09-28T22:21:18.992Z,4.30
2022-09-28T22:23:46.164Z,4.90
2022-09-28T22:26:20.077Z,4.40
2022-09-28T22:28:49.831Z,4.13
2022-09-28T22:31:17.557Z,4.00
2022-09-28T22:33:44.193Z,4.10
2022-09-28T22:36:11.307Z,3.97
2022-09-28T22:38:38.153Z,4.30
2022-09-28T22:41:04.782Z,4.13
2022-09-28T22:43:31.795Z,3.80
2022-09-28T22:46:03.223Z,4.30
2022-09-28T22:48:29.950Z,4.17
2022-09-28T22:50:56.584Z,4.20
2022-09-28T22:53:23.243Z,4.33
2022-09-28T22:55:49.938Z,3.80
2022-09-28T22:58:16.985Z,4.60
2022-09-28T23:00:44.405Z,4.17
2022-09-28T23:03:11.046Z,3.73
2022-09-28T23:05:38.005Z,4.68
2022-09-28T23:08:04.617Z,3.93
2022-09-28T23:10:31.501Z,4.10
2022-09-28T23:12:58.354Z,4.30
2022-09-28T23:15:25.642Z,4.17
2022-09-28T23:17:53.404Z,4.17
2022-09-28T23:20:21.538Z,4.23
2022-09-28T23:22:49.338Z,4.20
2022-09-28T23:25:18.017Z,4.23
2022-09-28T23:27:46.514Z,4.23
2022-09-28T23:30:14.480Z,5.33
2022-09-28T23:32:41.681Z,4.73
2022-09-28T23:35:09.164Z,4.87
2022-09-28T23:37:35.886Z,4.57
2022-09-28T23:40:05.571Z,4.80
2022-09-28T23:42:32.398Z,5.33
2022-09-28T23:44:58.994Z,5.37
2022-09-28T23:47:25.540Z,5.00
2022-09-28T23:49:52.262Z,4.83
2022-09-28T23:52:18.883Z,4.67
2022-09-28T23:54:45.559Z,5.00
2022-09-28T23:57:12.138Z,4.80
2022-09-28T23:59:38.870Z,4.93
